createdAt,value
2019-02-04T00:02:24.645Z,100668.86
2019-02-04T00:07:26.152Z,100670.64
2019-02-04T00:09:57.092Z,100672.59
2019-02-04T00:12:27.522Z,100676.98
2019-02-04T00:14:58.359Z,100681.91
2019-02-04T00:17:30.518Z,100682.86
2019-02-04T00:22:31.103Z,100686.36
2019-02-04T00:25:01.749Z,100688.31
2019-02-04T00:27:33.302Z,100685.98
2019-02-04T00:30:04.667Z,100689.78
2019-02-04T00:32:35.386Z,100686.23
2019-02-04T00:35:06.392Z,100683.50
2019-02-04T00:37:37.269Z,100655.28
2019-02-04T00:40:09.919Z,100684.02
2019-02-04T00:42:40.611Z,100684.02
2019-02-04T00:45:11.966Z,100682.47
2019-02-04T00:47:42.979Z,100694.20
2019-02-04T00:50:14.665Z,100696.00
2019-02-04T00:52:45.337Z,100694.52
2019-02-04T00:55:16.514Z,100690.43
2019-02-04T00:57:47.461Z,100690.43
2019-02-04T01:00:24.277Z,100700.67
2019-02-04T01:02:55.203Z,100686.96
2019-02-04T01:05:26.058Z,100686.79
2019-02-04T01:07:57.103Z,100686.79
2019-02-04T01:10:28.601Z,100681.92
2019-02-04T01:12:59.915Z,100681.92
2019-02-04T01:15:31.020Z,100680.17
2019-02-04T01:18:01.713Z,100680.03
2019-02-04T01:20:32.761Z,100679.19
2019-02-04T01:23:03.929Z,100682.81
2019-02-04T01:25:34.960Z,100688.48
2019-02-04T01:28:06.867Z,100687.53
2019-02-04T01:30:37.576Z,100696.48
2019-02-04T01:33:08.523Z,100695.48
2019-02-04T01:35:39.768Z,100706.15
2019-02-04T01:38:10.582Z,100706.15
2019-02-04T01:40:43.372Z,100706.95
2019-02-04T01:43:13.884Z,100706.09
2019-02-04T01:45:45.094Z,100711.10
2019-02-04T01:48:16.507Z,100705.11
2019-02-04T01:50:47.029Z,100707.80
2019-02-04T01:53:19.271Z,100707.80
2019-02-04T01:55:50.991Z,100706.72
2019-02-04T01:58:23.122Z,100702.88
2019-02-04T02:00:53.691Z,100718.41
2019-02-04T02:03:24.223Z,100727.97
2019-02-04T02:05:55.197Z,100734.20
2019-02-04T02:08:25.830Z,100734.20
2019-02-04T02:10:56.698Z,100727.21
2019-02-04T02:13:27.216Z,100728.44
2019-02-04T02:15:58.538Z,100725.30
2019-02-04T02:18:29.149Z,100727.17
2019-02-04T02:20:59.710Z,100729.82
2019-02-04T02:23:31.118Z,100729.45
2019-02-04T02:26:01.837Z,100730.30
2019-02-04T02:28:33.635Z,100733.67
2019-02-04T02:31:04.550Z,100733.67
2019-02-04T02:33:35.537Z,100732.91
2019-02-04T02:36:06.415Z,100735.02
2019-02-04T02:38:37.291Z,100741.08
2019-02-04T02:41:09.085Z,100739.00
2019-02-04T02:43:40.012Z,100742.53
2019-02-04T02:46:10.683Z,100743.43
2019-02-04T02:48:41.165Z,100741.52
2019-02-04T02:51:12.342Z,100750.25
2019-02-04T02:53:42.845Z,100749.32
2019-02-04T02:56:13.627Z,100746.19
2019-02-04T02:58:45.926Z,100745.00
2019-02-04T03:01:16.615Z,100749.74
2019-02-04T03:03:47.379Z,100752.36
2019-02-04T03:06:18.252Z,100756.56
2019-02-04T03:08:49.236Z,100746.68
2019-02-04T03:11:19.996Z,100746.68
2019-02-04T03:13:50.566Z,100754.92
2019-02-04T03:16:21.203Z,100740.53
2019-02-04T03:18:51.752Z,100749.96
2019-02-04T03:21:22.416Z,100743.25
2019-02-04T03:23:53.160Z,100743.25
2019-02-04T03:26:24.095Z,100745.99
2019-02-04T03:28:55.999Z,100743.45
2019-02-04T03:31:26.959Z,100730.58
2019-02-04T03:33:57.650Z,100730.58
2019-02-04T03:36:28.388Z,100736.74
2019-02-04T03:38:59.787Z,100745.72
2019-02-04T03:41:30.912Z,100749.18
2019-02-04T03:44:07.207Z,100741.48
2019-02-04T03:46:40.218Z,100747.33
2019-02-04T03:49:11.237Z,100751.92
2019-02-04T03:51:44.558Z,100754.36
2019-02-04T03:54:15.827Z,100753.80
2019-02-04T03:56:46.492Z,100759.33
2019-02-04T03:59:17.094Z,100760.16
2019-02-04T04:01:47.781Z,100755.20
2019-02-04T04:04:18.638Z,100760.34
2019-02-04T04:06:49.741Z,100767.89
2019-02-04T04:09:20.725Z,100767.70
2019-02-04T04:11:51.396Z,100771.72
2019-02-04T04:14:21.986Z,100772.47
2019-02-04T04:16:52.915Z,100769.17
2019-02-04T04:19:23.719Z,100764.37
2019-02-04T04:21:54.339Z,100775.57
2019-02-04T04:24:25.006Z,100776.39
2019-02-04T04:26:55.883Z,100773.84
2019-02-04T04:29:27.438Z,100776.48
2019-02-04T04:31:58.203Z,100780.96
2019-02-04T04:34:28.958Z,100789.16
2019-02-04T04:36:59.468Z,100797.00
2019-02-04T04:39:30.668Z,100803.18
2019-02-04T04:42:01.522Z,100799.91
2019-02-04T04:44:32.437Z,100795.50
2019-02-04T04:47:04.505Z,100797.00
2019-02-04T04:49:35.605Z,100798.67
2019-02-04T04:52:06.608Z,100804.09
2019-02-04T04:54:37.529Z,100806.72
2019-02-04T04:57:10.263Z,100809.20
2019-02-04T04:59:41.306Z,100822.34
2019-02-04T05:02:14.852Z,100820.19
2019-02-04T05:04:45.827Z,100824.20
2019-02-04T05:07:17.255Z,100824.93
2019-02-04T05:09:47.911Z,100821.38
2019-02-04T05:12:19.514Z,100824.23
2019-02-04T05:14:50.231Z,100828.03
2019-02-04T05:17:20.847Z,100829.30
2019-02-04T05:19:52.514Z,100832.86
2019-02-04T05:22:23.164Z,100834.06
2019-02-04T05:24:55.135Z,100837.76
2019-02-04T05:27:25.875Z,100839.78
2019-02-04T05:29:57.481Z,100844.41
2019-02-04T05:32:28.374Z,100836.94
2019-02-04T05:34:59.781Z,100853.25
2019-02-04T05:37:30.719Z,100853.25
2019-02-04T05:40:01.666Z,100856.54
2019-02-04T05:42:34.488Z,100859.25
2019-02-04T05:45:06.131Z,100860.87
2019-02-04T05:47:37.116Z,100870.81
2019-02-04T05:50:10.065Z,100881.66
2019-02-04T05:52:40.698Z,100883.18
2019-02-04T05:55:12.280Z,100888.72
2019-02-04T05:57:43.229Z,100879.93
2019-02-04T06:00:19.596Z,100885.66
2019-02-04T06:02:50.266Z,100882.00
2019-02-04T06:05:21.445Z,100887.21
2019-02-04T06:07:52.368Z,100887.47
2019-02-04T06:10:23.091Z,100894.83
2019-02-04T06:12:55.650Z,100890.55
2019-02-04T06:15:26.294Z,100894.63
2019-02-04T06:17:57.091Z,100896.59
2019-02-04T06:20:28.037Z,100899.50
2019-02-04T06:22:58.695Z,100904.04
2019-02-04T06:25:29.749Z,100902.08
2019-02-04T06:28:00.667Z,100903.73
2019-02-04T06:30:33.382Z,100907.45
2019-02-04T06:33:04.438Z,100903.16
2019-02-04T06:35:35.350Z,100910.87
2019-02-04T06:38:06.967Z,100910.95
2019-02-04T06:40:37.892Z,100906.45
2019-02-04T06:43:08.990Z,100912.17
2019-02-04T06:45:41.265Z,100908.14
2019-02-04T06:48:12.363Z,100902.78
2019-02-04T06:50:43.300Z,100906.69
2019-02-04T06:53:13.992Z,100910.70
2019-02-04T06:55:44.483Z,100911.48
2019-02-04T06:58:15.070Z,100914.28
2019-02-04T07:00:46.132Z,100910.66
2019-02-04T07:03:17.190Z,100916.13
2019-02-04T07:05:47.840Z,100920.52
2019-02-04T07:08:20.415Z,100919.03
2019-02-04T07:10:51.310Z,100930.47
2019-02-04T07:13:22.499Z,100928.55
2019-02-04T07:15:53.266Z,100938.45
2019-02-04T07:18:24.228Z,100941.11
2019-02-04T07:20:54.930Z,100942.34
2019-02-04T07:23:25.687Z,100939.03
2019-02-04T07:25:56.634Z,100939.84
2019-02-04T07:28:27.029Z,100937.38
2019-02-04T07:30:58.931Z,100939.17
2019-02-04T07:33:29.540Z,100947.93
2019-02-04T07:36:03.214Z,100951.86
2019-02-04T07:38:33.227Z,100948.17
2019-02-04T07:41:04.333Z,100948.54
2019-02-04T07:43:35.792Z,100956.80
2019-02-04T07:46:06.871Z,100963.64
2019-02-04T07:48:37.608Z,100962.61
2019-02-04T07:51:08.409Z,100965.02
2019-02-04T07:53:39.353Z,100956.57
2019-02-04T07:56:10.208Z,100959.34
2019-02-04T07:58:40.945Z,100966.31
2019-02-04T08:01:11.678Z,100973.59
2019-02-04T08:03:42.227Z,100977.13
2019-02-04T08:06:13.156Z,100981.30
2019-02-04T08:08:43.862Z,100975.14
2019-02-04T08:11:14.332Z,100978.17
2019-02-04T08:13:45.045Z,100969.77
2019-02-04T08:16:15.990Z,100967.14
2019-02-04T08:18:46.778Z,100968.91
2019-02-04T08:21:17.248Z,100973.05
2019-02-04T08:23:48.471Z,100973.15
2019-02-04T08:26:19.207Z,100978.23
2019-02-04T08:28:49.861Z,100976.06
2019-02-04T08:31:21.490Z,100979.35
2019-02-04T08:33:52.364Z,100980.58
2019-02-04T08:36:23.013Z,100978.22
2019-02-04T08:38:53.758Z,100976.12
2019-02-04T08:41:24.513Z,100981.61
2019-02-04T08:43:56.180Z,100976.52
2019-02-04T08:46:26.904Z,100984.59
2019-02-04T08:48:57.535Z,100989.23
2019-02-04T08:51:28.118Z,100999.34
2019-02-04T08:53:58.812Z,100993.69
2019-02-04T08:56:30.067Z,100993.95
2019-02-04T08:59:01.167Z,101000.88
2019-02-04T09:01:32.061Z,100992.66
2019-02-04T09:04:02.864Z,100993.66
2019-02-04T09:06:33.943Z,101002.42
2019-02-04T09:09:07.202Z,100984.47
2019-02-04T09:11:38.121Z,100989.45
2019-02-04T09:14:09.285Z,100986.13
2019-02-04T09:16:40.216Z,100979.22
2019-02-04T09:19:11.084Z,100980.18
2019-02-04T09:21:41.488Z,100974.69
2019-02-04T09:24:31.163Z,100977.56
2019-02-04T09:27:02.098Z,100975.29
2019-02-04T09:29:33.735Z,100968.72
2019-02-04T09:32:05.788Z,100969.41
2019-02-04T09:34:36.833Z,100971.88
2019-02-04T09:37:07.953Z,100963.03
2019-02-04T09:39:39.043Z,100965.58
2019-02-04T09:42:09.831Z,100963.46
2019-02-04T09:44:40.303Z,100960.64
2019-02-04T09:47:10.936Z,100966.16
2019-02-04T09:49:41.885Z,100972.22
2019-02-04T09:52:12.477Z,100969.23
2019-02-04T09:54:44.192Z,100966.73
2019-02-04T09:57:14.885Z,100965.33
2019-02-04T09:59:45.424Z,100957.55
2019-02-04T10:02:16.250Z,100959.34
2019-02-04T10:04:47.052Z,100954.46
2019-02-04T10:07:17.985Z,100957.22
2019-02-04T10:09:48.571Z,100961.27
2019-02-04T10:12:19.966Z,100961.98
2019-02-04T10:14:50.575Z,100964.38
2019-02-04T10:17:21.298Z,100968.23
2019-02-04T10:19:52.083Z,100960.69
2019-02-04T10:22:22.817Z,100958.05
2019-02-04T10:24:53.466Z,100958.66
2019-02-04T10:27:23.985Z,100956.98
2019-02-04T10:29:55.816Z,100954.81
2019-02-04T10:32:27.692Z,100957.45
2019-02-04T10:34:58.323Z,100953.85
2019-02-04T10:37:29.424Z,100947.52
2019-02-04T10:40:00.312Z,100947.98
2019-02-04T10:42:31.036Z,100946.08
2019-02-04T10:45:01.580Z,100952.13
2019-02-04T10:47:32.484Z,100952.61
2019-02-04T10:50:03.443Z,100951.80
2019-02-04T10:52:34.051Z,100949.77
2019-02-04T10:57:40.617Z,100953.59
2019-02-04T11:00:09.669Z,100955.22
2019-02-04T11:02:40.321Z,100948.78
2019-02-04T11:05:13.054Z,100955.27
2019-02-04T11:07:44.317Z,100951.69
2019-02-04T11:12:45.747Z,100948.95
2019-02-04T11:15:17.906Z,100946.32
2019-02-04T11:17:49.207Z,100950.27
2019-02-04T11:20:22.731Z,100949.44
2019-02-04T11:22:53.351Z,100950.96
2019-02-04T11:25:24.054Z,100954.27
2019-02-04T11:27:55.147Z,100953.64
2019-02-04T11:30:28.177Z,100948.39
2019-02-04T11:33:00.256Z,100932.14
2019-02-04T11:35:31.226Z,100945.89
2019-02-04T11:38:02.917Z,100945.76
2019-02-04T11:40:35.693Z,100950.05
2019-02-04T11:43:06.976Z,100945.52
2019-02-04T11:45:38.473Z,100942.30
2019-02-04T11:48:10.800Z,100944.81
2019-02-04T11:50:42.176Z,100942.30
2019-02-04T11:53:12.689Z,100943.42
2019-02-04T11:55:43.781Z,100938.16
2019-02-04T11:58:14.065Z,100936.81
2019-02-04T12:00:44.702Z,100936.70
2019-02-04T12:03:16.388Z,100934.69
2019-02-04T12:05:46.816Z,100937.65
2019-02-04T12:08:19.031Z,100938.97
2019-02-04T12:10:55.830Z,100949.25
2019-02-04T12:13:26.380Z,100945.80
2019-02-04T12:15:59.673Z,100937.79
2019-02-04T12:18:30.512Z,100944.03
2019-02-04T12:21:01.256Z,100941.75
2019-02-04T12:23:32.396Z,100942.02
2019-02-04T12:26:03.139Z,100929.92
2019-02-04T12:28:33.983Z,100936.48
2019-02-04T12:31:04.633Z,100933.04
2019-02-04T12:33:36.567Z,100929.09
2019-02-04T12:36:06.132Z,100926.09
2019-02-04T12:38:36.647Z,100924.42
2019-02-04T12:41:10.187Z,100921.44
2019-02-04T12:43:43.197Z,100921.66
2019-02-04T12:46:14.104Z,100917.24
2019-02-04T12:48:44.807Z,100916.65
2019-02-04T12:51:16.017Z,100913.30
2019-02-04T12:53:46.639Z,100920.35
2019-02-04T12:56:17.144Z,100926.58
2019-02-04T12:58:55.370Z,100922.63
2019-02-04T13:01:20.142Z,100933.03
2019-02-04T13:03:51.888Z,100927.38
2019-02-04T13:06:22.583Z,100926.06
2019-02-04T13:08:54.192Z,100933.20
2019-02-04T13:11:24.978Z,100927.27
2019-02-04T13:13:55.454Z,100935.13
2019-02-04T13:16:26.004Z,100935.47
2019-02-04T13:18:56.650Z,100938.83
2019-02-04T13:21:27.211Z,100947.66
2019-02-04T13:23:57.570Z,100947.73
2019-02-04T13:26:29.263Z,100947.27
2019-02-04T13:28:59.942Z,100948.77
2019-02-04T13:31:30.571Z,100948.42
2019-02-04T13:34:01.753Z,100949.59
2019-02-04T13:36:32.968Z,100959.36
2019-02-04T13:39:05.472Z,100958.78
2019-02-04T13:41:36.036Z,100960.62
2019-02-04T13:44:07.502Z,100961.27
2019-02-04T13:46:38.191Z,100960.47
2019-02-04T13:49:10.266Z,100955.20
2019-02-04T13:51:42.271Z,100959.37
2019-02-04T13:54:16.288Z,100954.28
2019-02-04T13:56:47.091Z,100953.25
2019-02-04T13:59:17.885Z,100956.58
2019-02-04T14:01:48.757Z,100957.81
2019-02-04T14:04:19.387Z,100961.18
2019-02-04T14:06:49.861Z,100957.36
2019-02-04T14:09:22.050Z,100955.61
2019-02-04T14:11:52.606Z,100954.92
2019-02-04T14:14:26.161Z,100947.97
2019-02-04T14:16:56.705Z,100948.97
2019-02-04T14:19:27.611Z,100948.85
2019-02-04T14:22:08.962Z,100947.30
2019-02-04T14:24:31.102Z,100939.91
2019-02-04T14:27:02.133Z,100947.10
2019-02-04T14:29:33.865Z,100943.74
2019-02-04T14:32:04.478Z,100941.73
2019-02-04T14:34:36.449Z,100946.75
2019-02-04T14:37:07.326Z,100949.14
2019-02-04T14:39:37.923Z,100952.86
2019-02-04T14:42:12.327Z,100949.23
2019-02-04T14:45:18.903Z,100954.84
2019-02-04T14:48:05.624Z,100954.92
2019-02-04T14:50:53.961Z,100958.59
2019-02-04T14:54:00.328Z,100957.35
2019-02-04T14:56:57.103Z,100956.96
2019-02-04T14:59:35.600Z,100961.43
2019-02-04T15:02:33.682Z,100961.05
2019-02-04T15:05:29.093Z,100961.84
2019-02-04T15:08:47.219Z,100963.83
2019-02-04T15:11:49.174Z,100964.33
2019-02-04T15:14:54.135Z,100964.62
2019-02-04T15:17:55.287Z,100964.11
2019-02-04T15:21:07.507Z,100965.11
2019-02-04T15:24:27.892Z,100968.25
2019-02-04T15:27:43.877Z,100970.84
2019-02-04T15:30:48.612Z,100974.44
2019-02-04T15:33:41.917Z,100981.07
2019-02-04T15:36:26.437Z,100982.09
2019-02-04T15:39:11.107Z,100988.87
2019-02-04T15:42:11.033Z,100990.61
2019-02-04T15:44:48.849Z,100993.30
2019-02-04T15:47:31.891Z,100992.61
2019-02-04T15:50:33.842Z,101000.53
2019-02-04T15:53:05.950Z,101001.02
2019-02-04T15:55:39.901Z,101004.89
2019-02-04T15:58:09.650Z,101004.44
2019-02-04T16:00:40.065Z,101004.64
2019-02-04T16:03:10.689Z,101011.86
2019-02-04T16:05:41.810Z,101006.72
2019-02-04T16:08:12.673Z,101009.16
2019-02-04T16:10:43.162Z,101006.09
2019-02-04T16:13:16.158Z,101008.11
2019-02-04T16:15:47.404Z,101006.30
2019-02-04T16:18:18.165Z,101007.92
2019-02-04T16:20:48.918Z,101013.36
2019-02-04T16:23:19.403Z,101015.53
2019-02-04T16:28:19.315Z,101013.64
2019-02-04T16:30:49.800Z,101020.48
2019-02-04T16:33:20.951Z,101021.31
2019-02-04T16:35:52.224Z,101024.42
2019-02-04T16:38:22.957Z,101024.59
2019-02-04T16:40:54.096Z,101030.44
2019-02-04T16:43:24.698Z,101032.73
2019-02-04T16:45:55.681Z,101041.69
2019-02-04T16:48:27.373Z,101047.67
2019-02-04T16:51:10.829Z,101055.07
2019-02-04T16:53:31.719Z,101054.67
2019-02-04T16:56:02.455Z,101054.94
2019-02-04T16:58:34.012Z,101060.00
2019-02-04T17:01:06.083Z,101064.72
2019-02-04T17:03:37.042Z,101067.70
2019-02-04T17:06:09.028Z,101062.76
2019-02-04T17:08:39.415Z,101060.87
2019-02-04T17:11:09.924Z,101062.33
2019-02-04T17:13:40.552Z,101064.72
2019-02-04T17:16:11.032Z,101064.50
2019-02-04T17:18:41.556Z,101066.34
2019-02-04T17:21:12.407Z,101063.18
2019-02-04T17:23:43.365Z,101065.59
2019-02-04T17:26:14.203Z,101053.95
2019-02-04T17:28:44.626Z,101060.59
2019-02-04T17:31:15.546Z,101063.52
2019-02-04T17:33:46.690Z,101062.80
2019-02-04T17:36:17.248Z,101065.40
2019-02-04T17:38:49.180Z,101065.05
2019-02-04T17:41:19.736Z,101064.73
2019-02-04T17:43:50.783Z,101067.94
2019-02-04T17:46:21.527Z,101075.48
2019-02-04T17:48:57.535Z,101078.08
2019-02-04T17:51:31.910Z,101083.46
2019-02-04T17:54:05.033Z,101074.86
2019-02-04T17:56:34.660Z,101081.94
2019-02-04T17:59:06.340Z,101078.11
2019-02-04T18:01:37.267Z,101077.55
2019-02-04T18:04:08.055Z,101073.27
2019-02-04T18:06:43.142Z,101081.20
2019-02-04T18:09:14.191Z,101077.25
2019-02-04T18:11:45.059Z,101077.87
2019-02-04T18:14:16.093Z,101082.16
2019-02-04T18:16:46.746Z,101069.31
2019-02-04T18:19:17.437Z,101075.61
2019-02-04T18:21:48.347Z,101083.45
2019-02-04T18:24:19.234Z,101083.64
2019-02-04T18:26:49.777Z,101087.44
2019-02-04T18:29:21.851Z,101082.21
2019-02-04T18:31:52.776Z,101083.03
2019-02-04T18:34:23.802Z,101083.14
2019-02-04T18:36:55.135Z,101085.56
2019-02-04T18:39:26.302Z,101090.87
2019-02-04T18:41:58.669Z,101085.38
2019-02-04T18:44:29.430Z,101087.56
2019-02-04T18:47:00.344Z,101093.66
2019-02-04T18:49:32.594Z,101092.47
2019-02-04T18:52:03.906Z,101090.45
2019-02-04T18:54:34.702Z,101096.64
2019-02-04T18:57:05.717Z,101101.70
2019-02-04T18:59:37.262Z,101104.79
2019-02-04T19:02:07.941Z,101098.56
2019-02-04T19:04:38.864Z,101104.17
2019-02-04T19:07:09.373Z,101108.98
2019-02-04T19:09:40.292Z,101110.91
2019-02-04T19:12:11.600Z,101111.59
2019-02-04T19:14:44.965Z,101121.13
2019-02-04T19:17:15.956Z,101119.88
2019-02-04T19:19:47.842Z,101118.52
2019-02-04T19:22:18.265Z,101123.73
2019-02-04T19:24:48.837Z,101120.35
2019-02-04T19:27:19.852Z,101126.39
2019-02-04T19:32:20.424Z,101135.14
2019-02-04T19:34:51.026Z,101134.89
2019-02-04T19:37:23.058Z,101136.81
2019-02-04T19:39:54.268Z,101135.67
2019-02-04T19:42:24.594Z,101135.88
2019-02-04T19:44:55.345Z,101141.09
2019-02-04T19:47:26.029Z,101137.41
2019-02-04T19:49:57.075Z,101137.33
2019-02-04T19:52:29.154Z,101137.78
2019-02-04T19:55:01.837Z,101139.09
2019-02-04T19:57:33.683Z,101139.00
2019-02-04T20:00:05.235Z,101137.70
2019-02-04T20:02:35.505Z,101146.38
2019-02-04T20:05:12.185Z,101146.75
2019-02-04T20:07:44.892Z,101142.09
2019-02-04T20:10:17.843Z,101141.70
2019-02-04T20:12:48.778Z,101143.08
2019-02-04T20:15:25.578Z,101139.78
2019-02-04T20:17:57.636Z,101143.16
2019-02-04T20:20:31.015Z,101149.23
2019-02-04T20:23:05.791Z,101151.77
2019-02-04T20:25:37.448Z,101159.06
2019-02-04T20:28:09.180Z,101154.38
2019-02-04T20:30:45.910Z,101163.75
2019-02-04T20:33:14.831Z,101159.36
2019-02-04T20:35:47.470Z,101161.06
2019-02-04T20:38:18.210Z,101162.73
2019-02-04T20:40:49.597Z,101165.18
2019-02-04T20:43:19.821Z,101173.01
2019-02-04T20:45:50.126Z,101172.92
2019-02-04T20:48:21.260Z,101169.63
2019-02-04T20:50:51.668Z,101170.48
2019-02-04T20:53:21.953Z,101169.34
2019-02-04T20:55:53.746Z,101176.64
2019-02-04T20:58:25.645Z,101178.11
2019-02-04T21:00:56.769Z,101174.48
2019-02-04T21:03:27.879Z,101174.48
2019-02-04T21:05:58.755Z,101177.41
2019-02-04T21:08:30.996Z,101179.70
2019-02-04T21:11:01.752Z,101180.11
2019-02-04T21:13:32.780Z,101181.09
2019-02-04T21:16:03.503Z,101185.77
2019-02-04T21:18:34.796Z,101183.16
2019-02-04T21:21:05.951Z,101186.37
2019-02-04T21:23:36.510Z,101183.19
2019-02-04T21:26:07.895Z,101194.61
2019-02-04T21:28:38.349Z,101194.42
2019-02-04T21:31:11.403Z,101192.33
2019-02-04T21:33:42.096Z,101200.22
2019-02-04T21:36:12.827Z,101202.48
2019-02-04T21:38:44.750Z,101206.37
2019-02-04T21:41:15.563Z,101206.03
2019-02-04T21:43:46.753Z,101208.05
2019-02-04T21:46:17.435Z,101213.88
2019-02-04T21:48:48.263Z,101209.70
2019-02-04T21:51:18.639Z,101213.22
2019-02-04T21:53:49.152Z,101212.52
2019-02-04T21:56:19.492Z,101218.95
2019-02-04T21:58:52.068Z,101211.31
2019-02-04T22:01:22.686Z,101210.60
2019-02-04T22:03:53.586Z,101213.30
2019-02-04T22:06:25.082Z,101209.78
2019-02-04T22:08:55.593Z,101204.61
2019-02-04T22:11:26.780Z,101211.62
2019-02-04T22:13:57.795Z,101217.66
2019-02-04T22:16:28.452Z,101214.13
2019-02-04T22:18:59.756Z,101208.22
2019-02-04T22:21:30.763Z,101203.73
2019-02-04T22:24:01.940Z,101204.56
2019-02-04T22:26:32.605Z,101198.97
2019-02-04T22:29:03.802Z,101201.44
2019-02-04T22:31:34.624Z,101209.52
2019-02-04T22:34:06.536Z,101216.13
2019-02-04T22:36:37.295Z,101219.22
2019-02-04T22:39:10.406Z,101221.62
2019-02-04T22:41:42.071Z,101216.41
2019-02-04T22:44:12.790Z,101215.39
2019-02-04T22:46:43.579Z,101221.72
2019-02-04T22:49:14.452Z,101217.73
2019-02-04T22:51:45.020Z,101222.95
2019-02-04T22:54:16.044Z,101223.04
2019-02-04T22:56:46.612Z,101224.42
2019-02-04T22:59:17.903Z,101219.08
2019-02-04T23:01:53.937Z,101220.51
2019-02-04T23:04:25.522Z,101218.55
2019-02-04T23:06:56.298Z,101217.29
2019-02-04T23:09:27.138Z,101216.70
2019-02-04T23:12:00.074Z,101219.08
2019-02-04T23:14:32.174Z,101221.45
2019-02-04T23:17:03.261Z,101231.42
2019-02-04T23:19:34.180Z,101224.45
2019-02-04T23:22:06.005Z,101234.97
2019-02-04T23:24:41.879Z,101228.58
2019-02-04T23:27:13.577Z,101235.78
2019-02-04T23:29:44.499Z,101232.50
2019-02-04T23:32:15.107Z,101221.14
2019-02-04T23:34:51.214Z,101215.17
2019-02-04T23:37:22.409Z,101216.52
2019-02-04T23:39:55.239Z,101222.75
2019-02-04T23:42:27.081Z,101210.88
2019-02-04T23:45:00.568Z,101201.91
2019-02-04T23:47:31.426Z,101219.02
2019-02-04T23:50:02.424Z,101219.02
2019-02-04T23:52:33.396Z,101217.61
2019-02-04T23:55:06.304Z,101219.66
2019-02-04T23:57:37.035Z,101213.75
